ハルビン の空港の天気 - METARとTAF

ハルビン太平国際空港 ( ZYHB / HRB ) - 中国 黒竜江省ハルビン市
飛行場実況気象(Metar)
観測時間01/19 19:00 CST (01/19 11:00 UTC)
風向・風速西南西 4m/s
視程10km以上
天気現象
なし
気温-10℃
湿度57%
気圧1019hPa
METARZYHB 191100Z 25004MPS CAVOK M10/M17 Q1019 NOSIG
過去の天気等 Google飛行場航空写真 Wunderground天気予報

過去48時間のMETAR

飛行場予報(TAF)
発表時間: 1/19 11:02 CST (1/19 03:02 UTC)
予報対象時間: 19日14時 CST ~ 20日14時 CST
風向・風速南南西 3m/s
視程5000m
天気現象
なし
TAF ZYHB 190302Z 1906/2006 21003MPS 5000 FU NSC TXM08/06Z TNM20/21Z